Time;durP1;ratioP1;P1;durP2;ratioP2;P2;SDS_P1;SDS_P2;PMS_P1;PMS_P2;Temp;Humidity;BMP_temperature;BMP_pressure;BME280_temperature;BME280_humidity;BME280_pressure;Samples;Min_cycle;Max_cycle;Signal;HPM_P1;HPM_P2
2023/03/06 00:00:37;;;;;;;;;;;;;;;3.68;nan;99819.28;4994528;28;19932;-85
2023/03/06 00:03:03;;;;;;;;;;;;;;;3.67;nan;99815.00;4991074;28;19925;-85
2023/03/06 00:05:28;;;;;;;;;;;;;;;3.67;nan;99820.22;4996946;28;19981;-87
2023/03/06 00:07:53;;;;;;;;;;;;;;;3.67;nan;99817.63;5014688;28;19939;-86
2023/03/06 00:10:20;;;;;;;;;;;;;;;3.66;nan;99824.63;5030977;28;19960;-85
2023/03/06 00:12:46;;;;;;;;;;;;;;;3.64;nan;99820.50;4998223;28;19917;-87
2023/03/06 00:15:12;;;;;;;;;;;;;;;3.65;nan;99816.91;4999135;28;19924;-85
2023/03/06 00:17:37;;;;;;;;;;;;;;;3.64;nan;99810.03;4996444;28;20481;-85
2023/03/06 00:20:03;;;;;;;;;;;;;;;3.63;nan;99809.22;4998247;28;19917;-86
2023/03/06 00:22:28;;;;;;;;;;;;;;;3.63;nan;99803.97;4999036;28;19999;-87
2023/03/06 00:24:54;;;;;;;;;;;;;;;3.63;nan;99795.31;5001528;28;19918;-85
2023/03/06 00:27:19;;;;;;;;;;;;;;;3.60;nan;99792.00;5000508;28;19917;-84
2023/03/06 00:29:48;;;;;;;;;;;;;;;3.59;nan;99792.94;5000068;28;19913;-87
2023/03/06 00:32:14;;;;;;;;;;;;;;;3.58;nan;99785.22;4999553;28;19917;-86
2023/03/06 00:34:39;;;;;;;;;;;;;;;3.60;nan;99789.38;4996286;28;20085;-84
2023/03/06 00:37:04;;;;;;;;;;;;;;;3.59;nan;99782.47;4997770;28;19953;-85
2023/03/06 00:39:29;;;;;;;;;;;;;;;3.59;nan;99786.88;4996367;28;20307;-86
2023/03/06 00:41:54;;;;;;;;;;;;;;;3.59;nan;99786.88;5000070;28;20138;-84
2023/03/06 00:44:20;;;;;;;;;;;;;;;3.58;nan;99783.44;4996442;28;19952;-85
2023/03/06 00:46:45;;;;;;;;;;;;;;;3.56;nan;99787.97;4996164;28;19925;-84
2023/03/06 00:49:10;;;;;;;;;;;;;;;3.56;nan;99787.97;4996779;28;20299;-85
2023/03/06 00:51:35;;;;;;;;;;;;;;;3.56;nan;99784.53;4990837;28;19917;-86
2023/03/06 00:54:01;;;;;;;;;;;;;;;3.56;nan;99784.53;4995520;28;19917;-85
2023/03/06 00:56:26;;;;;;;;;;;;;;;3.56;nan;99779.28;5007865;28;19917;-86
2023/03/06 00:58:51;;;;;;;;;;;;;;;3.55;nan;99769.78;5010944;28;19952;-87
2023/03/06 01:01:16;;;;;;;;;;;;;;;3.58;nan;99770.38;5028294;28;19921;-86
2023/03/06 01:03:45;;;;;;;;;;;;;;;3.56;nan;99767.03;5016868;28;19949;-86
2023/03/06 01:06:10;;;;;;;;;;;;;;;3.56;nan;99767.03;5010427;28;19921;-86
2023/03/06 01:08:36;;;;;;;;;;;;;;;3.57;nan;99758.22;5013499;28;19988;-86
2023/03/06 01:11:01;;;;;;;;;;;;;;;3.54;nan;99763.72;5027738;28;19905;-86
2023/03/06 01:13:32;;;;;;;;;;;;;;;3.54;nan;99753.28;5029568;28;19905;-86
2023/03/06 01:16:06;;;;;;;;;;;;;;;3.53;nan;99753.41;5030096;28;19928;-86
2023/03/06 01:18:34;;;;;;;;;;;;;;;3.53;nan;99750.81;5010686;28;19928;-86
2023/03/06 01:20:59;;;;;;;;;;;;;;;3.50;nan;99745.81;5003535;28;19917;-87
2023/03/06 01:23:27;;;;;;;;;;;;;;;3.50;nan;99756.25;5007931;28;20486;-87
2023/03/06 01:25:52;;;;;;;;;;;;;;;3.49;nan;99739.75;5013157;28;19924;-88
2023/03/06 01:28:18;;;;;;;;;;;;;;;3.48;nan;99734.63;5004231;28;19917;-86
2023/03/06 01:30:43;;;;;;;;;;;;;;;3.48;nan;99732.88;4999559;28;19925;-88
2023/03/06 01:33:11;;;;;;;;;;;;;;;3.46;nan;99726.13;5008772;28;20005;-87
2023/03/06 01:35:40;;;;;;;;;;;;;;;3.46;nan;99721.72;5003269;28;20446;-85
2023/03/06 01:38:07;;;;;;;;;;;;;;;3.46;nan;99719.09;5003186;28;19927;-88
2023/03/06 01:40:36;;;;;;;;;;;;;;;3.44;nan;99710.56;4998261;28;19929;-87
2023/03/06 01:43:20;;;;;;;;;;;;;;;3.44;nan;99710.56;5013871;28;19922;-87
2023/03/06 01:45:51;;;;;;;;;;;;;;;3.44;nan;99707.13;5007505;28;19925;-88
2023/03/06 01:54:46;;;;;;;;;;;;;;;3.39;nan;99694.44;4947025;28;20342;-88
2023/03/06 01:57:14;;;;;;;;;;;;;;;3.39;nan;99691.81;4988416;28;19922;-87
2023/03/06 01:59:41;;;;;;;;;;;;;;;3.38;nan;99690.13;5012226;28;20016;-86
2023/03/06 02:02:07;;;;;;;;;;;;;;;3.36;nan;99690.28;5010075;28;19921;-86
2023/03/06 02:04:34;;;;;;;;;;;;;;;3.35;nan;99691.22;5028025;28;19917;-86
2023/03/06 02:07:03;;;;;;;;;;;;;;;3.33;nan;99692.31;5014182;28;19981;-87
2023/03/06 02:09:34;;;;;;;;;;;;;;;3.32;nan;99686.25;5007992;28;19917;-86
2023/03/06 02:12:08;;;;;;;;;;;;;;;3.31;nan;99688.97;5021326;28;19924;-86
2023/03/06 02:14:36;;;;;;;;;;;;;;;3.29;nan;99685.66;5000450;28;19913;-86
2023/03/06 02:17:03;;;;;;;;;;;;;;;3.27;nan;99684.97;5011458;28;19913;-87
2023/03/06 02:19:44;;;;;;;;;;;;;;;3.27;nan;99687.59;5010567;28;19917;-86
2023/03/06 02:22:10;;;;;;;;;;;;;;;3.28;nan;99673.56;4991821;28;19917;-86
2023/03/06 02:24:47;;;;;;;;;;;;;;;3.28;nan;99678.78;5006936;28;19936;-86
2023/03/06 02:27:13;;;;;;;;;;;;;;;3.25;nan;99679.06;5012209;28;19969;-86
2023/03/06 02:29:39;;;;;;;;;;;;;;;3.24;nan;99672.97;5011836;28;19917;-87
2023/03/06 02:32:04;;;;;;;;;;;;;;;3.25;nan;99664.19;5002280;28;19983;-88
2023/03/06 02:34:35;;;;;;;;;;;;;;;3.25;nan;99671.22;5012497;28;19917;-86
2023/03/06 02:37:07;;;;;;;;;;;;;;;3.24;nan;99664.31;5010564;28;19921;-86
2023/03/06 02:39:36;;;;;;;;;;;;;;;3.23;nan;99663.50;5009050;28;19917;-86
2023/03/06 02:42:02;;;;;;;;;;;;;;;3.22;nan;99661.84;5017044;28;19932;-86
2023/03/06 02:44:30;;;;;;;;;;;;;;;3.21;nan;99657.56;5011315;28;19917;-86
2023/03/06 02:46:59;;;;;;;;;;;;;;;3.21;nan;99660.16;5010330;28;19944;-86
2023/03/06 02:49:27;;;;;;;;;;;;;;;3.22;nan;99643.56;5025011;28;19917;-86
2023/03/06 02:51:53;;;;;;;;;;;;;;;3.23;nan;99647.00;5007568;28;19924;-86
2023/03/06 02:54:18;;;;;;;;;;;;;;;3.23;nan;99636.53;5002210;28;19917;-86
2023/03/06 02:56:47;;;;;;;;;;;;;;;3.24;nan;99638.19;5005054;28;19924;-87
2023/03/06 02:59:12;;;;;;;;;;;;;;;3.22;nan;99635.72;5010599;28;19929;-86
2023/03/06 03:01:38;;;;;;;;;;;;;;;3.22;nan;99634.88;5007666;28;19921;-87
2023/03/06 03:04:05;;;;;;;;;;;;;;;3.24;nan;99632.97;5007361;28;19933;-87
2023/03/06 03:06:34;;;;;;;;;;;;;;;3.19;nan;99634.19;5029377;28;19917;-87
2023/03/06 03:09:02;;;;;;;;;;;;;;;3.18;nan;99629.91;5010422;28;19917;-87
2023/03/06 03:11:30;;;;;;;;;;;;;;;3.17;nan;99630.03;5009426;28;19989;-86
2023/03/06 03:14:01;;;;;;;;;;;;;;;3.15;nan;99627.56;5012403;28;19928;-87
2023/03/06 03:16:27;;;;;;;;;;;;;;;3.15;nan;99616.28;5005651;28;19928;-86
2023/03/06 03:18:52;;;;;;;;;;;;;;;3.15;nan;99627.56;5009768;28;19921;-86
2023/03/06 03:21:18;;;;;;;;;;;;;;;3.15;nan;99618.91;5012869;28;19932;-86
2023/03/06 03:23:43;;;;;;;;;;;;;;;3.12;nan;99625.22;5001312;28;19917;-86
2023/03/06 03:26:10;;;;;;;;;;;;;;;3.14;nan;99625.06;5001287;28;19918;-87
2023/03/06 03:28:36;;;;;;;;;;;;;;;3.13;nan;99624.25;5010867;28;19921;-86
2023/03/06 03:31:06;;;;;;;;;;;;;;;3.12;nan;99619.13;5013316;28;19956;-86
2023/03/06 03:33:31;;;;;;;;;;;;;;;3.12;nan;99625.22;5004015;28;19952;-86
2023/03/06 03:36:00;;;;;;;;;;;;;;;3.11;nan;99609.66;5012407;28;19925;-87
2023/03/06 03:38:25;;;;;;;;;;;;;;;3.12;nan;99612.16;4997830;28;20028;-86
2023/03/06 03:40:54;;;;;;;;;;;;;;;3.08;nan;99605.50;5011608;28;19918;-86
2023/03/06 03:43:20;;;;;;;;;;;;;;;3.06;nan;99607.41;5030433;28;19921;-86
2023/03/06 03:45:48;;;;;;;;;;;;;;;3.08;nan;99605.50;5012411;28;20362;-87
2023/03/06 03:48:16;;;;;;;;;;;;;;;3.05;nan;99605.78;5005289;28;19918;-86
2023/03/06 03:50:44;;;;;;;;;;;;;;;3.06;nan;99604.81;5004487;28;19917;-86
2023/03/06 03:53:09;;;;;;;;;;;;;;;3.07;nan;99606.44;4997951;28;20276;-86
2023/03/06 03:55:38;;;;;;;;;;;;;;;3.08;nan;99604.69;4993270;28;19983;-86
2023/03/06 03:58:04;;;;;;;;;;;;;;;3.07;nan;99609.06;5001794;28;20367;-87
2023/03/06 04:00:32;;;;;;;;;;;;;;;3.06;nan;99602.19;5000602;28;19928;-86
2023/03/06 04:02:58;;;;;;;;;;;;;;;3.07;nan;99595.19;4998876;28;19921;-87
2023/03/06 04:05:28;;;;;;;;;;;;;;;3.07;nan;99593.38;5001438;28;19936;-86
2023/03/06 04:07:54;;;;;;;;;;;;;;;3.06;nan;99596.97;5003558;28;19917;-85
2023/03/06 04:10:22;;;;;;;;;;;;;;;3.05;nan;99587.50;5002363;28;20043;-86
2023/03/06 04:12:47;;;;;;;;;;;;;;;3.06;nan;99590.91;5020567;28;19918;-87
2023/03/06 04:15:15;;;;;;;;;;;;;;;3.04;nan;99582.38;5005585;28;19947;-87
2023/03/06 04:17:40;;;;;;;;;;;;;;;3.03;nan;99583.31;5005463;28;19925;-87
2023/03/06 04:20:06;;;;;;;;;;;;;;;3.02;nan;99585.09;5004685;28;19914;-87
2023/03/06 04:22:37;;;;;;;;;;;;;;;3.05;nan;99586.63;5023024;28;19932;-86
2023/03/06 04:25:05;;;;;;;;;;;;;;;3.06;nan;99583.91;4988555;28;19918;-86
2023/03/06 04:27:30;;;;;;;;;;;;;;;3.06;nan;99580.47;5007391;28;20016;-87
2023/03/06 04:29:56;;;;;;;;;;;;;;;3.08;nan;99573.34;5007481;28;19901;-87
2023/03/06 04:32:25;;;;;;;;;;;;;;;3.09;nan;99577.59;5006404;28;19913;-86
2023/03/06 04:34:50;;;;;;;;;;;;;;;3.11;nan;99568.69;5005422;28;20390;-87
2023/03/06 04:37:20;;;;;;;;;;;;;;;3.10;nan;99571.41;5005975;28;19923;-87
2023/03/06 04:39:48;;;;;;;;;;;;;;;3.11;nan;99571.28;5004078;28;19924;-87
2023/03/06 04:42:16;;;;;;;;;;;;;;;3.11;nan;99563.44;5001925;28;19928;-87
2023/03/06 04:44:42;;;;;;;;;;;;;;;3.11;nan;99573.91;5001545;28;19932;-86
2023/03/06 04:47:16;;;;;;;;;;;;;;;3.12;nan;99565.13;5000675;28;19921;-87
2023/03/06 04:49:44;;;;;;;;;;;;;;;3.13;nan;99565.94;5016253;28;19921;-86
2023/03/06 04:52:09;;;;;;;;;;;;;;;3.11;nan;99563.44;5003871;28;19968;-85
2023/03/06 04:54:35;;;;;;;;;;;;;;;3.12;nan;99557.28;5000298;28;19948;-87
2023/03/06 04:57:06;;;;;;;;;;;;;;;3.13;nan;99558.94;5002123;28;19956;-86
2023/03/06 04:59:32;;;;;;;;;;;;;;;3.14;nan;99557.16;5000140;28;19917;-86
2023/03/06 05:01:57;;;;;;;;;;;;;;;3.15;nan;99554.41;4995768;28;20057;-87
2023/03/06 05:04:23;;;;;;;;;;;;;;;3.12;nan;99557.28;5000169;28;19917;-86
2023/03/06 05:06:51;;;;;;;;;;;;;;;3.15;nan;99556.22;5001071;28;19917;-86
2023/03/06 05:09:17;;;;;;;;;;;;;;;3.14;nan;99555.34;5000864;28;19925;-85
2023/03/06 05:11:42;;;;;;;;;;;;;;;3.16;nan;99550.84;5001427;28;20362;-87
2023/03/06 05:14:07;;;;;;;;;;;;;;;3.17;nan;99544.66;5002267;28;19913;-87
2023/03/06 05:16:36;;;;;;;;;;;;;;;3.16;nan;99545.59;5001379;28;19918;-87
2023/03/06 05:19:02;;;;;;;;;;;;;;;3.16;nan;99544.78;5018348;28;19921;-86
2023/03/06 05:21:30;;;;;;;;;;;;;;;3.16;nan;99550.00;4999614;28;19922;-86
2023/03/06 05:23:58;;;;;;;;;;;;;;;3.14;nan;99550.13;5014231;28;19917;-87
2023/03/06 05:26:26;;;;;;;;;;;;;;;3.13;nan;99548.50;5019894;28;19925;-87
2023/03/06 05:28:52;;;;;;;;;;;;;;;3.13;nan;99548.50;4998745;28;19928;-86
2023/03/06 05:31:18;;;;;;;;;;;;;;;3.14;nan;99547.50;5003423;28;19925;-87
2023/03/06 05:33:43;;;;;;;;;;;;;;;3.12;nan;99546.00;4993041;28;19956;-86
2023/03/06 05:36:09;;;;;;;;;;;;;;;3.10;nan;99547.91;4991278;28;19944;-87
2023/03/06 05:38:34;;;;;;;;;;;;;;;3.11;nan;99546.97;5005232;28;19943;-86
2023/03/06 05:41:00;;;;;;;;;;;;;;;3.09;nan;99546.25;5001812;28;19921;-87
2023/03/06 05:43:25;;;;;;;;;;;;;;;3.10;nan;99546.13;4997468;28;19918;-86
2023/03/06 05:45:58;;;;;;;;;;;;;;;3.08;nan;99545.44;4998620;28;19976;-86
2023/03/06 05:48:24;;;;;;;;;;;;;;;3.06;nan;99555.19;4994116;28;20338;-86
2023/03/06 05:50:53;;;;;;;;;;;;;;;3.05;nan;99545.69;4988951;28;19917;-87
2023/03/06 05:53:19;;;;;;;;;;;;;;;3.05;nan;99545.69;4998168;28;19941;-86
2023/03/06 05:55:45;;;;;;;;;;;;;;;3.04;nan;99548.44;5002527;28;19913;-86
2023/03/06 05:58:10;;;;;;;;;;;;;;;3.01;nan;99549.50;5019466;28;19929;-87
2023/03/06 06:00:40;;;;;;;;;;;;;;;3.00;nan;99550.44;4997461;28;19948;-87
2023/03/06 06:03:06;;;;;;;;;;;;;;;2.96;nan;99547.28;4996845;28;19922;-87
2023/03/06 06:05:31;;;;;;;;;;;;;;;2.95;nan;99552.63;5010963;28;19960;-86
2023/03/06 06:07:57;;;;;;;;;;;;;;;2.95;nan;99553.44;5001335;28;19913;-86
2023/03/06 06:10:25;;;;;;;;;;;;;;;2.94;nan;99553.59;4989717;28;19933;-86
2023/03/06 06:12:53;;;;;;;;;;;;;;;2.92;nan;99548.47;4985436;28;19922;-87
2023/03/06 06:15:19;;;;;;;;;;;;;;;2.91;nan;99546.84;4993565;28;19920;-87
2023/03/06 06:17:44;;;;;;;;;;;;;;;2.89;nan;99543.53;4997340;28;19917;-87
2023/03/06 06:20:10;;;;;;;;;;;;;;;2.89;nan;99540.09;5000245;28;19948;-86
2023/03/06 06:22:36;;;;;;;;;;;;;;;2.88;nan;99549.69;4999479;28;19921;-86
2023/03/06 06:25:03;;;;;;;;;;;;;;;2.86;nan;99543.78;4997715;28;19932;-87
2023/03/06 06:27:33;;;;;;;;;;;;;;;2.86;nan;99543.78;4997820;28;20346;-86
2023/03/06 06:30:04;;;;;;;;;;;;;;;2.86;nan;99542.94;5017385;28;20299;-86
2023/03/06 06:32:32;;;;;;;;;;;;;;;2.84;nan;99537.84;5007454;28;19917;-86
2023/03/06 06:34:58;;;;;;;;;;;;;;;2.82;nan;99546.78;4997840;28;19921;-86
2023/03/06 06:37:26;;;;;;;;;;;;;;;2.80;nan;99539.06;4995567;28;19917;-86
2023/03/06 06:39:51;;;;;;;;;;;;;;;2.80;nan;99540.84;5011985;28;19923;-86
2023/03/06 06:42:22;;;;;;;;;;;;;;;2.80;nan;99548.69;4995471;28;20361;-86
2023/03/06 06:44:51;;;;;;;;;;;;;;;2.79;nan;99542.63;5013285;28;19917;-86
2023/03/06 06:47:16;;;;;;;;;;;;;;;2.80;nan;99551.28;4995096;28;19918;-85
2023/03/06 06:49:42;;;;;;;;;;;;;;;2.82;nan;99547.59;4997562;28;19917;-85
2023/03/06 06:52:12;;;;;;;;;;;;;;;2.86;nan;99556.84;4987492;28;20402;-86
2023/03/06 06:54:37;;;;;;;;;;;;;;;2.91;nan;99553.84;4996461;28;20325;-86
2023/03/06 06:57:05;;;;;;;;;;;;;;;2.93;nan;99558.00;4997829;28;19943;-85
2023/03/06 06:59:31;;;;;;;;;;;;;;;2.96;nan;99564.75;5008758;28;19955;-85
2023/03/06 07:01:56;;;;;;;;;;;;;;;2.96;nan;99568.16;4994673;28;20414;-87
2023/03/06 07:04:22;;;;;;;;;;;;;;;2.98;nan;99563.66;4992021;28;19940;-87
2023/03/06 07:06:50;;;;;;;;;;;;;;;3.00;nan;99567.91;4989933;28;19971;-87
2023/03/06 07:09:21;;;;;;;;;;;;;;;3.01;nan;99564.34;5001485;28;19917;-86
2023/03/06 07:11:46;;;;;;;;;;;;;;;3.01;nan;99566.97;4999334;28;19921;-86
2023/03/06 07:14:20;;;;;;;;;;;;;;;3.01;nan;99580.03;4997712;28;19917;-86
2023/03/06 07:16:45;;;;;;;;;;;;;;;3.00;nan;99570.53;4998016;28;19929;-86
2023/03/06 07:19:10;;;;;;;;;;;;;;;3.02;nan;99571.22;5021908;28;19940;-87
2023/03/06 07:21:39;;;;;;;;;;;;;;;3.03;nan;99571.13;5002860;28;19910;-87
2023/03/06 07:24:07;;;;;;;;;;;;;;;3.05;nan;99579.66;5001819;28;19985;-87
2023/03/06 07:26:33;;;;;;;;;;;;;;;3.07;nan;99572.50;5011890;28;19936;-87
2023/03/06 07:28:58;;;;;;;;;;;;;;;3.12;nan;99570.34;5028825;28;19995;-87
2023/03/06 07:31:25;;;;;;;;;;;;;;;3.13;nan;99566.78;5011590;28;19924;-86
2023/03/06 07:33:51;;;;;;;;;;;;;;;3.16;nan;99566.50;5013111;28;19981;-87
2023/03/06 07:36:19;;;;;;;;;;;;;;;3.24;nan;99560.63;5009810;28;19908;-87
2023/03/06 07:38:58;;;;;;;;;;;;;;;3.27;nan;99564.81;5012680;28;19925;-87
2023/03/06 07:41:24;;;;;;;;;;;;;;;3.30;nan;99565.34;5022276;28;19944;-86
2023/03/06 07:43:51;;;;;;;;;;;;;;;3.32;nan;99567.84;5008420;28;19917;-85
2023/03/06 07:46:19;;;;;;;;;;;;;;;3.34;nan;99566.75;4994328;28;19925;-85
2023/03/06 07:48:45;;;;;;;;;;;;;;;3.41;nan;99554.00;4999760;28;20332;-84
2023/03/06 07:51:15;;;;;;;;;;;;;;;3.48;nan;99555.16;4996228;28;19959;-84
2023/03/06 07:53:40;;;;;;;;;;;;;;;3.63;nan;99558.25;4993782;28;20117;-85
2023/03/06 07:56:09;;;;;;;;;;;;;;;3.87;nan;99557.91;5001629;28;19918;-86
2023/03/06 07:58:36;;;;;;;;;;;;;;;4.11;nan;99561.97;5004396;28;19924;-86
2023/03/06 08:01:04;;;;;;;;;;;;;;;4.36;nan;99558.03;5002741;28;19964;-85
2023/03/06 08:03:32;;;;;;;;;;;;;;;4.54;nan;99568.66;4999281;28;19980;-86
2023/03/06 08:06:24;;;;;;;;;;;;;;;4.59;nan;99566.47;5006964;28;19937;-87
2023/03/06 08:08:50;;;;;;;;;;;;;;;4.58;nan;99570.06;4991665;28;20039;-86
2023/03/06 08:11:17;;;;;;;;;;;;;;;4.63;nan;99567.84;4995059;28;19917;-87
2023/03/06 08:13:47;;;;;;;;;;;;;;;4.73;nan;99570.47;5006705;28;19925;-87
2023/03/06 08:16:14;;;;;;;;;;;;;;;4.85;nan;99571.97;5021912;28;19917;-86
2023/03/06 08:18:39;;;;;;;;;;;;;;;5.07;nan;99574.28;5016667;28;19924;-87
2023/03/06 08:21:09;;;;;;;;;;;;;;;5.30;nan;99574.81;5002009;28;20458;-86
2023/03/06 08:23:34;;;;;;;;;;;;;;;5.45;nan;99585.66;5002389;28;19921;-87
2023/03/06 08:26:01;;;;;;;;;;;;;;;5.47;nan;99581.13;5002804;28;19921;-87
2023/03/06 08:28:27;;;;;;;;;;;;;;;5.39;nan;99581.00;5000632;28;19924;-86
2023/03/06 08:30:56;;;;;;;;;;;;;;;5.35;nan;99584.06;4993329;28;19959;-86
2023/03/06 08:33:26;;;;;;;;;;;;;;;5.26;nan;99591.78;5001733;28;20266;-85
2023/03/06 08:35:52;;;;;;;;;;;;;;;5.19;nan;99585.44;4992087;28;19980;-87
2023/03/06 08:38:18;;;;;;;;;;;;;;;5.13;nan;99593.06;4997921;28;20367;-87
2023/03/06 08:40:43;;;;;;;;;;;;;;;4.96;nan;99595.41;4995998;28;19913;-87
2023/03/06 08:43:10;;;;;;;;;;;;;;;4.93;nan;99600.91;5011493;28;19940;-87
2023/03/06 08:45:38;;;;;;;;;;;;;;;4.93;nan;99605.31;5006406;28;19940;-87
2023/03/06 08:48:06;;;;;;;;;;;;;;;4.87;nan;99598.84;5016577;28;19973;-88
2023/03/06 08:50:32;;;;;;;;;;;;;;;4.87;nan;99596.25;5015766;28;19960;-87
2023/03/06 08:53:00;;;;;;;;;;;;;;;4.94;nan;99588.66;5015066;28;19913;-87
2023/03/06 08:55:27;;;;;;;;;;;;;;;4.99;nan;99594.31;5014596;28;19913;-87
2023/03/06 08:57:58;;;;;;;;;;;;;;;4.96;nan;99603.28;5013111;28;20005;-87
2023/03/06 09:00:23;;;;;;;;;;;;;;;4.94;nan;99607.81;5002221;28;19930;-88
2023/03/06 09:02:54;;;;;;;;;;;;;;;4.99;nan;99602.16;5014211;28;19917;-87
2023/03/06 09:05:22;;;;;;;;;;;;;;;4.98;nan;99603.13;5013977;28;19913;-87
2023/03/06 09:07:50;;;;;;;;;;;;;;;4.94;nan;99604.38;5030472;28;19914;-87
2023/03/06 09:10:17;;;;;;;;;;;;;;;4.87;nan;99607.53;5030809;28;19924;-87
2023/03/06 09:12:42;;;;;;;;;;;;;;;4.91;nan;99605.50;4998227;28;19913;-87
2023/03/06 09:15:11;;;;;;;;;;;;;;;4.90;nan;99617.72;5020861;28;19920;-86
2023/03/06 09:17:40;;;;;;;;;;;;;;;4.88;nan;99608.38;5015747;28;20219;-87
2023/03/06 09:20:08;;;;;;;;;;;;;;;4.93;nan;99610.56;4990070;28;20012;-87
2023/03/06 09:22:33;;;;;;;;;;;;;;;4.95;nan;99611.25;5000436;28;19924;-87
2023/03/06 09:24:59;;;;;;;;;;;;;;;4.90;nan;99606.44;5000184;28;19913;-87
2023/03/06 09:27:26;;;;;;;;;;;;;;;4.83;nan;99603.53;4991833;28;19917;-87
2023/03/06 09:29:55;;;;;;;;;;;;;;;4.76;nan;99604.22;4997694;28;20017;-87
2023/03/06 09:32:23;;;;;;;;;;;;;;;4.69;nan;99598.69;4991094;28;20351;-87
2023/03/06 09:34:48;;;;;;;;;;;;;;;4.64;nan;99595.66;5000280;28;20023;-86
2023/03/06 09:37:17;;;;;;;;;;;;;;;4.60;nan;99602.13;5007796;28;20231;-88
2023/03/06 09:39:45;;;;;;;;;;;;;;;4.61;nan;99598.56;5007328;28;19913;-88
2023/03/06 09:42:17;;;;;;;;;;;;;;;4.62;nan;99600.22;5022780;28;20413;-88
2023/03/06 09:44:44;;;;;;;;;;;;;;;4.69;nan;99598.69;5003446;28;20381;-87
2023/03/06 09:47:32;;;;;;;;;;;;;;;4.72;nan;99598.44;5013603;28;19937;-87
2023/03/06 09:50:19;;;;;;;;;;;;;;;4.77;nan;99601.47;4982664;28;19913;-87
2023/03/06 09:52:58;;;;;;;;;;;;;;;4.89;nan;99603.00;4996173;28;20584;-87
2023/03/06 09:55:30;;;;;;;;;;;;;;;4.92;nan;99601.88;5000290;28;19918;-87
2023/03/06 09:58:12;;;;;;;;;;;;;;;5.04;nan;99589.47;5001346;28;19929;-87
2023/03/06 10:00:40;;;;;;;;;;;;;;;5.19;nan;99593.31;4991552;28;19918;-87
2023/03/06 10:03:24;;;;;;;;;;;;;;;5.26;nan;99594.41;4997651;28;19976;-87
2023/03/06 10:06:01;;;;;;;;;;;;;;;5.31;nan;99597.44;4992123;28;19925;-87
2023/03/06 10:08:37;;;;;;;;;;;;;;;5.36;nan;99598.81;4991161;28;19920;-87
2023/03/06 10:11:06;;;;;;;;;;;;;;;5.43;nan;99597.25;5001343;28;19956;-87
2023/03/06 10:13:49;;;;;;;;;;;;;;;5.46;nan;99597.81;5002532;28;19913;-86
2023/03/06 10:16:30;;;;;;;;;;;;;;;5.61;nan;99598.19;4987054;28;19936;-88
2023/03/06 10:19:02;;;;;;;;;;;;;;;5.60;nan;99593.94;5024042;28;19921;-87
2023/03/06 10:21:38;;;;;;;;;;;;;;;5.73;nan;99598.84;5021759;28;19987;-87
2023/03/06 10:24:16;;;;;;;;;;;;;;;5.67;nan;99587.16;4992143;28;19924;-89
2023/03/06 10:26:54;;;;;;;;;;;;;;;5.63;nan;99592.81;5036505;28;20168;-86
2023/03/06 10:29:42;;;;;;;;;;;;;;;5.69;nan;99595.66;4992360;28;19913;-86
2023/03/06 10:32:28;;;;;;;;;;;;;;;5.66;nan;99595.97;4949812;28;19917;-87
2023/03/06 10:34:59;;;;;;;;;;;;;;;5.68;nan;99598.47;4999893;28;19920;-87
2023/03/06 10:37:29;;;;;;;;;;;;;;;5.59;nan;99596.69;4998113;28;19918;-87
2023/03/06 10:40:02;;;;;;;;;;;;;;;5.48;nan;99603.75;4997721;28;19917;-87
2023/03/06 10:42:28;;;;;;;;;;;;;;;5.40;nan;99597.56;4970969;28;20303;-86
2023/03/06 10:45:14;;;;;;;;;;;;;;;5.38;nan;99595.06;4990201;28;19928;-86
2023/03/06 10:47:40;;;;;;;;;;;;;;;5.33;nan;99592.06;4992368;28;19917;-87
2023/03/06 10:50:25;;;;;;;;;;;;;;;5.43;nan;99595.47;4997663;28;19921;-86
2023/03/06 10:53:11;;;;;;;;;;;;;;;5.49;nan;99596.72;4995285;28;20182;-87
2023/03/06 10:55:39;;;;;;;;;;;;;;;5.50;nan;99596.56;4980929;28;19917;-86
2023/03/06 10:58:29;;;;;;;;;;;;;;;5.49;nan;99599.34;4986790;28;20006;-88
2023/03/06 11:01:01;;;;;;;;;;;;;;;5.59;nan;99596.69;5001876;28;19913;-87
2023/03/06 11:03:30;;;;;;;;;;;;;;;5.65;nan;99593.47;4990182;28;20399;-87
2023/03/06 11:06:13;;;;;;;;;;;;;;;5.69;nan;99593.03;4996477;28;19913;-86
2023/03/06 11:08:49;;;;;;;;;;;;;;;5.78;nan;99601.03;4981719;28;19965;-86
2023/03/06 11:11:21;;;;;;;;;;;;;;;5.89;nan;99598.25;4983825;28;20119;-87
2023/03/06 11:13:55;;;;;;;;;;;;;;;5.85;nan;99596.88;4985901;28;20310;-87
2023/03/06 11:16:37;;;;;;;;;;;;;;;5.82;nan;99595.38;5001794;28;19932;-86
2023/03/06 11:19:04;;;;;;;;;;;;;;;5.82;nan;99592.75;4997314;28;19925;-86
2023/03/06 11:21:34;;;;;;;;;;;;;;;5.85;nan;99584.56;4999075;28;19917;-86
2023/03/06 11:24:04;;;;;;;;;;;;;;;5.82;nan;99587.50;4992640;28;19963;-87
2023/03/06 11:26:51;;;;;;;;;;;;;;;5.87;nan;99584.44;4986586;28;20040;-86
2023/03/06 11:29:26;;;;;;;;;;;;;;;5.82;nan;99587.50;5014511;28;20452;-86
2023/03/06 11:32:07;;;;;;;;;;;;;;;5.66;nan;99577.59;5003088;28;19948;-86
2023/03/06 11:34:56;;;;;;;;;;;;;;;5.60;nan;99578.19;5009315;28;19930;-87
2023/03/06 11:37:40;;;;;;;;;;;;;;;5.67;nan;99576.66;4999730;28;19917;-87
2023/03/06 11:40:41;;;;;;;;;;;;;;;5.77;nan;99579.25;4995019;28;19924;-87
2023/03/06 11:43:12;;;;;;;;;;;;;;;5.80;nan;99581.56;4959439;29;20450;-87
2023/03/06 11:45:50;;;;;;;;;;;;;;;5.84;nan;99582.94;4997944;28;19918;-88
2023/03/06 11:48:19;;;;;;;;;;;;;;;5.93;nan;99574.19;5000868;28;19921;-87
2023/03/06 11:50:47;;;;;;;;;;;;;;;5.88;nan;99578.22;5007984;28;19913;-87
2023/03/06 11:53:27;;;;;;;;;;;;;;;5.89;nan;99577.25;5008438;28;19921;-86
2023/03/06 11:56:06;;;;;;;;;;;;;;;5.92;nan;99561.22;5004574;28;19944;-87
2023/03/06 11:58:37;;;;;;;;;;;;;;;5.98;nan;99565.91;4988031;28;19950;-86
2023/03/06 12:01:28;;;;;;;;;;;;;;;5.97;nan;99561.63;5016264;28;19913;-87
2023/03/06 12:04:09;;;;;;;;;;;;;;;6.04;nan;99559.25;4999159;28;19922;-87
2023/03/06 12:06:45;;;;;;;;;;;;;;;6.03;nan;99557.59;4991787;28;19914;-87
2023/03/06 12:09:21;;;;;;;;;;;;;;;6.07;nan;99556.34;4995935;28;19921;-87
2023/03/06 12:12:14;;;;;;;;;;;;;;;6.07;nan;99559.78;4989785;28;20025;-86
2023/03/06 12:14:40;;;;;;;;;;;;;;;6.07;nan;99554.53;4992835;28;20008;-86
2023/03/06 12:17:24;;;;;;;;;;;;;;;6.03;nan;99553.19;5000402;28;19914;-86
2023/03/06 12:19:56;;;;;;;;;;;;;;;5.78;nan;99549.41;4991147;28;19996;-87
2023/03/06 12:22:57;;;;;;;;;;;;;;;5.46;nan;99549.81;4999987;28;20387;-86
2023/03/06 12:25:29;;;;;;;;;;;;;;;5.12;nan;99539.81;4981931;28;19936;-86
2023/03/06 12:27:55;;;;;;;;;;;;;;;4.97;nan;99542.03;4993332;28;19914;-85
2023/03/06 12:30:23;;;;;;;;;;;;;;;4.80;nan;99527.88;4994874;28;20243;-86
2023/03/06 12:32:51;;;;;;;;;;;;;;;4.80;nan;99534.91;4998329;28;20361;-86
2023/03/06 12:35:43;;;;;;;;;;;;;;;4.84;nan;99524.00;5012110;28;19996;-86
2023/03/06 12:38:27;;;;;;;;;;;;;;;4.91;nan;99526.91;4981763;28;19944;-85
2023/03/06 12:40:52;;;;;;;;;;;;;;;5.00;nan;99523.41;5000277;28;19913;-85
2023/03/06 12:43:36;;;;;;;;;;;;;;;5.07;nan;99523.69;4999907;28;20051;-85
2023/03/06 12:46:11;;;;;;;;;;;;;;;5.11;nan;99525.88;5000545;28;19941;-85
2023/03/06 12:48:38;;;;;;;;;;;;;;;5.11;nan;99525.06;4998496;28;19945;-85
2023/03/06 12:51:05;;;;;;;;;;;;;;;5.15;nan;99526.44;5007233;28;19909;-87
2023/03/06 12:53:35;;;;;;;;;;;;;;;5.24;nan;99520.34;5013194;28;19944;-86
2023/03/06 12:56:01;;;;;;;;;;;;;;;5.57;nan;99520.78;5004571;28;20458;-87
2023/03/06 12:58:29;;;;;;;;;;;;;;;5.91;nan;99518.41;5009953;28;19917;-86
2023/03/06 13:00:57;;;;;;;;;;;;;;;6.37;nan;99518.44;5011606;28;19987;-87
2023/03/06 13:03:48;;;;;;;;;;;;;;;6.67;nan;99519.00;5028902;28;19963;-87
2023/03/06 13:06:27;;;;;;;;;;;;;;;7.13;nan;99520.53;4987222;28;19921;-87
2023/03/06 13:08:55;;;;;;;;;;;;;;;7.41;nan;99515.09;5011845;28;19988;-87
2023/03/06 13:11:50;;;;;;;;;;;;;;;7.62;nan;99510.25;5019517;28;19932;-87
2023/03/06 13:14:19;;;;;;;;;;;;;;;7.62;nan;99507.63;4956514;28;19914;-87
2023/03/06 13:16:44;;;;;;;;;;;;;;;7.79;nan;99495.34;5011388;28;20662;-87
2023/03/06 13:19:11;;;;;;;;;;;;;;;7.99;nan;99508.28;5012312;28;19917;-86
2023/03/06 13:21:42;;;;;;;;;;;;;;;8.02;nan;99507.94;5013145;28;19963;-87
2023/03/06 13:24:24;;;;;;;;;;;;;;;8.15;nan;99500.44;4994338;28;19913;-87
2023/03/06 13:26:52;;;;;;;;;;;;;;;8.14;nan;99504.03;5010093;28;19924;-87
2023/03/06 13:29:44;;;;;;;;;;;;;;;8.09;nan;99504.50;5011569;28;19976;-87
2023/03/06 13:32:12;;;;;;;;;;;;;;;8.13;nan;99502.38;5010113;28;19918;-87
2023/03/06 13:34:51;;;;;;;;;;;;;;;8.07;nan;99498.56;5010048;28;19968;-87
2023/03/06 13:37:16;;;;;;;;;;;;;;;8.11;nan;99499.09;5006336;28;19920;-87